Time;durP1;ratioP1;P1;durP2;ratioP2;P2;SDS_P1;SDS_P2;PMS_P1;PMS_P2;Temp;Humidity;BMP_temperature;BMP_pressure;BME280_temperature;BME280_humidity;BME280_pressure;Samples;Min_cycle;Max_cycle;Signal;HPM_P1;HPM_P2
2021/07/16 00:02:06;;;;;;;15.38;5.70;;;;;;;16.37;88.99;101992.66;5095929;28;20044;-50
2021/07/16 00:04:33;;;;;;;12.98;5.07;;;;;;;16.35;89.14;101997.25;5094775;28;20446;-46
2021/07/16 00:07:00;;;;;;;12.40;6.40;;;;;;;16.27;88.49;101997.78;5095604;28;20047;-50
2021/07/16 00:09:27;;;;;;;15.25;6.20;;;;;;;16.30;88.65;102000.19;5095819;28;20055;-55
2021/07/16 00:11:53;;;;;;;10.57;5.60;;;;;;;16.28;88.71;102002.13;5095465;28;20101;-55
2021/07/16 00:14:21;;;;;;;10.73;5.35;;;;;;;16.29;88.61;101993.22;5094479;28;20139;-56
2021/07/16 00:16:47;;;;;;;11.98;5.38;;;;;;;16.29;88.33;101993.22;5095750;28;20048;-47
2021/07/16 00:19:16;;;;;;;14.88;5.05;;;;;;;16.27;88.01;102005.75;5094323;28;20395;-49
2021/07/16 00:21:43;;;;;;;12.10;5.03;;;;;;;16.27;88.41;101999.59;5095358;28;20073;-47
2021/07/16 00:24:10;;;;;;;10.70;5.15;;;;;;;16.32;87.74;102002.75;5094205;28;20067;-47
2021/07/16 00:26:38;;;;;;;13.60;5.72;;;;;;;16.30;87.75;102007.31;5095470;28;20078;-52
2021/07/16 00:29:04;;;;;;;13.45;5.40;;;;;;;16.21;88.05;102000.84;5095292;28;20460;-51
2021/07/16 00:31:34;;;;;;;10.55;4.63;;;;;;;16.23;87.30;101994.47;5095033;28;20036;-51
2021/07/16 00:34:02;;;;;;;9.40;5.18;;;;;;;16.17;87.58;101999.38;5093979;28;20566;-46
2021/07/16 00:36:29;;;;;;;11.43;5.30;;;;;;;16.25;87.39;101998.84;5093804;28;20056;-50
2021/07/16 00:38:55;;;;;;;12.25;5.60;;;;;;;16.22;86.71;102008.72;5093818;28;20052;-56
2021/07/16 00:41:22;;;;;;;11.25;5.18;;;;;;;16.27;87.05;102021.66;5094687;28;20063;-50
2021/07/16 00:43:49;;;;;;;9.98;5.00;;;;;;;16.23;86.65;102014.88;5093440;28;20050;-48
2021/07/16 00:46:16;;;;;;;9.35;5.93;;;;;;;16.22;87.03;102006.06;5092847;28;20044;-57
2021/07/16 00:48:43;;;;;;;12.27;5.30;;;;;;;16.27;87.19;102012.84;5092895;28;20052;-56
2021/07/16 00:51:10;;;;;;;10.00;5.15;;;;;;;16.23;86.86;102012.22;5093950;28;20052;-56
2021/07/16 00:53:38;;;;;;;12.20;5.40;;;;;;;16.23;86.54;102020.19;5094427;28;20514;-55
2021/07/16 00:56:05;;;;;;;12.48;5.13;;;;;;;16.33;86.68;102025.69;5092901;28;20044;-55
2021/07/16 00:58:32;;;;;;;9.40;5.00;;;;;;;16.31;86.80;102014.34;5093610;28;20078;-56
2021/07/16 01:00:59;;;;;;;9.88;4.80;;;;;;;16.31;86.60;102009.88;5073186;28;20105;-56
2021/07/16 01:03:26;;;;;;;12.27;5.60;;;;;;;16.28;86.36;102012.75;5093141;28;20101;-55
2021/07/16 01:05:53;;;;;;;10.55;4.75;;;;;;;16.27;86.88;102008.38;5094667;28;20056;-56
2021/07/16 01:08:20;;;;;;;15.50;5.65;;;;;;;16.29;86.91;102009.16;5093524;28;20052;-56
2021/07/16 01:10:46;;;;;;;12.27;5.40;;;;;;;16.28;86.73;102007.44;5094233;28;20055;-56
2021/07/16 01:13:13;;;;;;;11.85;5.65;;;;;;;16.25;86.86;102012.94;5093414;28;20047;-56
2021/07/16 01:15:41;;;;;;;12.70;5.28;;;;;;;16.15;86.94;102011.91;5094683;28;20137;-56
2021/07/16 01:18:08;;;;;;;12.75;5.50;;;;;;;16.18;87.04;102011.69;5093533;28;20075;-56
2021/07/16 01:20:36;;;;;;;14.68;5.80;;;;;;;16.10;87.39;102014.91;5094718;28;20048;-56
2021/07/16 01:23:22;;;;;;;12.82;5.82;;;;;;;16.05;87.67;102006.41;5091145;28;20097;-56
2021/07/16 01:25:49;;;;;;;12.40;5.28;;;;;;;16.07;87.63;102012.44;5091386;28;20048;-56
2021/07/16 01:28:16;;;;;;;12.90;5.55;;;;;;;16.15;87.78;102009.25;5093519;28;20048;-56
2021/07/16 01:30:43;;;;;;;11.52;5.35;;;;;;;16.08;87.27;102015.97;5094389;28;20043;-56
2021/07/16 01:33:10;;;;;;;12.15;5.85;;;;;;;16.09;87.60;102017.63;5094036;28;20109;-50
2021/07/16 01:35:37;;;;;;;13.18;5.80;;;;;;;16.11;87.35;102011.28;5093990;28;20044;-49
2021/07/16 01:38:04;;;;;;;12.82;5.55;;;;;;;16.04;87.59;102008.19;5093717;28;20063;-50
2021/07/16 01:40:35;;;;;;;11.65;5.88;;;;;;;16.02;87.29;102012.78;5093417;28;20044;-56
2021/07/16 01:43:04;;;;;;;14.07;5.97;;;;;;;16.05;87.27;102011.72;5091623;28;20059;-49
2021/07/16 01:45:38;;;;;;;11.75;6.90;;;;;;;16.01;87.62;102011.06;5092740;28;20523;-50
2021/07/16 01:48:15;;;;;;;13.00;5.82;;;;;;;16.01;87.22;102019.03;5094171;28;20074;-57
2021/07/16 01:50:45;;;;;;;14.45;6.18;;;;;;;15.95;88.13;102027.44;5090833;28;20063;-56
2021/07/16 01:53:14;;;;;;;12.45;6.40;;;;;;;15.94;87.47;102024.84;5091642;28;20040;-56
2021/07/16 01:55:41;;;;;;;11.85;6.40;;;;;;;16.01;87.45;102032.28;5094162;28;20075;-48
2021/07/16 01:58:10;;;;;;;10.18;5.90;;;;;;;16.02;87.93;102028.69;5093317;28;20054;-50
2021/07/16 02:00:46;;;;;;;14.23;5.93;;;;;;;15.99;87.53;102028.91;5092239;28;20048;-50
2021/07/16 02:03:15;;;;;;;16.52;5.90;;;;;;;16.00;86.17;102019.13;5093567;28;20127;-51
2021/07/16 02:05:45;;;;;;;14.45;5.78;;;;;;;15.99;86.90;102025.41;5093674;28;20424;-50
2021/07/16 02:08:18;;;;;;;16.52;5.93;;;;;;;15.93;86.15;102029.31;5092282;28;20051;-51
2021/07/16 02:10:53;;;;;;;15.63;6.28;;;;;;;15.91;86.12;102028.59;5093571;28;20043;-49
2021/07/16 02:13:20;;;;;;;16.05;6.38;;;;;;;15.94;86.15;102023.06;5092085;28;20044;-48
2021/07/16 02:15:49;;;;;;;11.32;5.72;;;;;;;15.93;85.69;102034.63;5093595;28;20519;-52
2021/07/16 02:18:17;;;;;;;14.57;6.20;;;;;;;15.91;86.40;102028.59;5092012;28;20093;-56
2021/07/16 02:20:44;;;;;;;21.98;7.50;;;;;;;15.85;85.79;102026.34;5075282;28;20052;-48
2021/07/16 02:23:19;;;;;;;13.10;5.95;;;;;;;15.82;86.31;102026.56;5093158;28;20048;-56
2021/07/16 02:25:46;;;;;;;12.07;6.18;;;;;;;15.79;85.30;102035.56;5093606;28;20044;-51
2021/07/16 02:28:19;;;;;;;16.10;5.78;;;;;;;15.86;85.61;102038.69;5093660;28;20089;-48
2021/07/16 02:30:46;;;;;;;15.30;6.35;;;;;;;15.84;85.94;102044.09;5093089;28;20051;-49
2021/07/16 02:33:13;;;;;;;17.17;6.72;;;;;;;15.84;85.85;102041.44;5092713;28;20036;-56
2021/07/16 02:35:41;;;;;;;16.55;6.70;;;;;;;15.94;85.72;102043.44;5075122;28;20052;-56
2021/07/16 02:38:08;;;;;;;13.35;5.82;;;;;;;15.85;85.42;102048.41;5091355;28;20084;-56
2021/07/16 02:40:35;;;;;;;19.92;6.82;;;;;;;15.81;85.73;102043.44;5090094;28;20052;-52
2021/07/16 02:43:03;;;;;;;19.92;5.60;;;;;;;15.84;85.46;102040.56;5092504;28;20044;-56
2021/07/16 02:45:31;;;;;;;17.40;6.72;;;;;;;15.87;85.88;102045.69;5091209;28;20047;-56
2021/07/16 02:47:58;;;;;;;13.38;6.07;;;;;;;15.86;85.04;102041.31;5088681;28;20100;-51
2021/07/16 02:50:27;;;;;;;18.48;5.95;;;;;;;15.81;84.84;102040.78;5092359;28;20503;-56
2021/07/16 02:52:55;;;;;;;14.52;6.28;;;;;;;15.76;84.81;102038.44;5093150;28;20047;-56
2021/07/16 02:55:22;;;;;;;16.77;6.47;;;;;;;15.63;84.92;102033.09;5092966;28;20101;-48
2021/07/16 02:57:50;;;;;;;16.63;6.10;;;;;;;15.72;84.28;102043.09;5091647;28;20051;-48
2021/07/16 03:00:19;;;;;;;15.63;6.72;;;;;;;15.64;84.70;102032.16;5091781;28;20044;-56
2021/07/16 03:02:47;;;;;;;14.38;5.93;;;;;;;15.75;85.35;102039.38;5091539;28;20495;-48
2021/07/16 03:05:17;;;;;;;15.23;5.95;;;;;;;15.74;84.90;102036.84;5092417;28;20032;-51
2021/07/16 03:07:45;;;;;;;15.68;6.50;;;;;;;15.73;84.16;102033.31;5092469;28;20040;-47
2021/07/16 03:10:34;;;;;;;14.38;5.45;;;;;;;15.69;84.75;102040.66;5092362;28;20043;-47
2021/07/16 03:13:03;;;;;;;22.25;5.68;;;;;;;15.67;83.51;102041.69;5091797;28;20044;-57
2021/07/16 03:15:30;;;;;;;17.90;5.90;;;;;;;15.58;84.11;102047.63;5090054;28;20482;-57
2021/07/16 03:17:57;;;;;;;15.63;5.82;;;;;;;15.52;84.79;102040.94;5092417;28;20051;-57
2021/07/16 03:20:27;;;;;;;15.13;5.68;;;;;;;15.54;84.03;102039.00;5092883;28;20426;-57
2021/07/16 03:22:55;;;;;;;13.73;5.82;;;;;;;15.55;84.70;102040.72;5091266;28;20044;-51
2021/07/16 03:25:22;;;;;;;14.32;5.45;;;;;;;15.58;84.47;102040.50;5092394;28;20048;-57
2021/07/16 03:27:50;;;;;;;15.48;5.60;;;;;;;15.59;84.12;102044.03;5093066;28;20047;-57
2021/07/16 03:30:28;;;;;;;16.48;5.72;;;;;;;15.60;83.41;102051.88;5074543;28;20036;-57
2021/07/16 03:32:55;;;;;;;18.08;6.05;;;;;;;15.54;83.37;102050.47;5095632;28;20376;-49
2021/07/16 03:35:23;;;;;;;13.35;4.95;;;;;;;15.45;82.84;102052.91;5092464;28;20044;-48
2021/07/16 03:37:52;;;;;;;19.45;5.40;;;;;;;15.43;83.13;102044.19;5095113;28;20062;-52
2021/07/16 03:40:27;;;;;;;14.23;5.35;;;;;;;15.41;84.08;102044.31;5096618;28;20483;-49
2021/07/16 03:42:55;;;;;;;17.65;6.15;;;;;;;15.47;83.64;102048.34;5096123;28;20040;-52
2021/07/16 03:45:22;;;;;;;16.77;5.88;;;;;;;15.40;83.41;102050.53;5095061;28;20052;-50
2021/07/16 03:47:49;;;;;;;12.40;4.97;;;;;;;15.45;84.18;102058.22;5096131;28;20052;-53
2021/07/16 03:50:18;;;;;;;16.45;5.70;;;;;;;15.52;83.38;102059.50;5095987;28;20112;-50
2021/07/16 03:52:45;;;;;;;10.55;5.18;;;;;;;15.48;83.22;102058.00;5096090;28;20101;-51
2021/07/16 03:55:12;;;;;;;14.20;4.80;;;;;;;15.49;83.72;102057.06;5096071;28;20048;-52
2021/07/16 03:57:49;;;;;;;15.90;5.65;;;;;;;15.52;83.90;102054.19;5095933;28;20048;-51
2021/07/16 04:00:21;;;;;;;12.43;4.97;;;;;;;15.53;84.38;102056.72;5095742;28;20036;-51
2021/07/16 04:02:48;;;;;;;15.85;4.97;;;;;;;15.55;83.28;102056.63;5095944;28;20050;-49
2021/07/16 04:05:15;;;;;;;16.30;5.50;;;;;;;15.50;83.31;102048.13;5095800;28;20075;-51
2021/07/16 04:07:45;;;;;;;16.50;5.50;;;;;;;15.51;83.96;102052.47;5094611;28;20382;-46
2021/07/16 04:10:15;;;;;;;14.63;5.57;;;;;;;15.46;82.89;102054.59;5095721;28;20044;-51
2021/07/16 04:12:43;;;;;;;14.43;4.72;;;;;;;15.54;82.97;102058.44;5094348;28;20040;-50
2021/07/16 04:15:10;;;;;;;13.45;4.75;;;;;;;15.51;83.13;102057.78;5094178;28;20052;-51
2021/07/16 04:17:37;;;;;;;13.70;5.00;;;;;;;15.48;83.13;102052.69;5095562;28;20511;-50
2021/07/16 04:20:04;;;;;;;15.57;5.30;;;;;;;15.48;83.08;102063.31;5095364;28;20067;-57
2021/07/16 04:22:31;;;;;;;13.82;4.35;;;;;;;15.48;82.76;102058.00;5095445;28;20052;-52
2021/07/16 04:24:58;;;;;;;14.93;4.78;;;;;;;15.52;81.93;102054.19;5094645;28;20059;-50
2021/07/16 04:27:24;;;;;;;13.85;4.95;;;;;;;15.51;82.30;102053.31;5095627;28;20043;-49
2021/07/16 04:29:51;;;;;;;14.20;4.88;;;;;;;15.48;82.83;102058.00;5095289;28;20043;-49
2021/07/16 04:32:18;;;;;;;19.17;4.88;;;;;;;15.44;82.08;102057.34;5094847;28;20044;-56
2021/07/16 04:34:45;;;;;;;11.45;4.32;;;;;;;15.46;82.59;102057.22;5093945;28;20048;-57
2021/07/16 04:37:12;;;;;;;13.90;4.60;;;;;;;15.43;82.60;102068.88;5095066;28;20105;-57
2021/07/16 04:39:39;;;;;;;16.45;4.70;;;;;;;15.46;82.97;102076.66;5095225;28;20050;-57
2021/07/16 04:42:06;;;;;;;14.48;4.90;;;;;;;15.43;82.09;102078.66;5094271;28;20487;-57
2021/07/16 04:44:34;;;;;;;14.20;4.80;;;;;;;15.49;82.55;102078.25;5092839;28;20109;-57
2021/07/16 04:47:01;;;;;;;13.73;5.22;;;;;;;15.52;82.50;102094.78;5091764;28;20054;-57
2021/07/16 04:49:28;;;;;;;16.20;4.93;;;;;;;15.48;82.29;102097.75;5094651;28;20055;-57
2021/07/16 04:51:55;;;;;;;15.23;4.22;;;;;;;15.53;82.90;102098.31;5093449;28;20055;-57
2021/07/16 04:54:22;;;;;;;10.77;4.15;;;;;;;15.50;82.16;102096.72;5093824;28;20146;-57
2021/07/16 04:56:49;;;;;;;14.20;4.70;;;;;;;15.48;82.08;102097.75;5091092;28;20076;-51
2021/07/16 04:59:16;;;;;;;17.48;4.82;;;;;;;15.54;82.04;102095.56;5093576;28;20097;-57
2021/07/16 05:01:43;;;;;;;15.85;4.30;;;;;;;15.44;81.71;102099.75;5091869;28;20040;-51
2021/07/16 05:04:11;;;;;;;19.13;4.63;;;;;;;15.53;82.04;102101.81;5090696;28;20044;-57
2021/07/16 05:06:38;;;;;;;15.73;4.20;;;;;;;15.61;82.13;102093.34;5094761;28;20044;-57
2021/07/16 05:09:05;;;;;;;19.10;4.90;;;;;;;15.64;81.41;102111.69;5094173;28;20040;-49
2021/07/16 05:11:32;;;;;;;16.02;4.78;;;;;;;15.67;81.54;102098.22;5093053;28;20138;-50
2021/07/16 05:14:00;;;;;;;14.48;4.50;;;;;;;15.68;81.74;102099.94;5094070;28;20048;-50
2021/07/16 05:16:28;;;;;;;12.32;4.45;;;;;;;15.66;81.22;102111.59;5094648;28;20055;-56
2021/07/16 05:18:55;;;;;;;14.57;4.38;;;;;;;15.72;81.42;102109.38;5094431;28;20554;-57
2021/07/16 05:21:21;;;;;;;11.82;3.97;;;;;;;15.75;80.56;102107.47;5075172;28;20427;-56
2021/07/16 05:23:48;;;;;;;15.25;4.38;;;;;;;15.75;80.92;102104.81;5093042;28;20499;-56
2021/07/16 05:26:15;;;;;;;13.55;4.22;;;;;;;15.76;81.24;102101.22;5076064;28;20101;-50
2021/07/16 05:28:43;;;;;;;14.40;4.15;;;;;;;15.77;80.21;102113.53;5094784;28;20055;-49
2021/07/16 05:31:09;;;;;;;13.93;4.15;;;;;;;15.83;80.57;102115.81;5093905;28;20043;-52
2021/07/16 05:33:36;;;;;;;15.55;4.18;;;;;;;15.85;80.94;102111.25;5091586;28;20462;-50
2021/07/16 05:36:04;;;;;;;19.00;4.00;;;;;;;15.87;80.75;102119.97;5091858;28;20062;-48
2021/07/16 05:38:33;;;;;;;14.45;3.95;;;;;;;15.96;81.19;102111.34;5092951;28;20051;-49
2021/07/16 05:41:01;;;;;;;14.93;3.65;;;;;;;16.01;80.11;102122.50;5092799;28;20055;-50
2021/07/16 05:43:28;;;;;;;17.17;4.10;;;;;;;16.02;80.51;102110.06;5093862;28;20078;-48
2021/07/16 05:45:55;;;;;;;16.27;3.78;;;;;;;16.07;79.76;102120.41;5093660;28;20052;-49
2021/07/16 05:48:23;;;;;;;14.60;4.10;;;;;;;16.21;80.25;102117.63;5093607;28;20056;-52
2021/07/16 05:50:49;;;;;;;14.45;3.70;;;;;;;16.25;80.17;102123.59;5092468;28;20068;-49
2021/07/16 05:53:17;;;;;;;15.48;4.03;;;;;;;16.24;78.66;102128.06;5091625;28;20032;-51
2021/07/16 05:55:44;;;;;;;18.33;3.90;;;;;;;16.35;79.09;102122.84;5089457;28;20051;-49
2021/07/16 05:58:11;;;;;;;13.95;3.25;;;;;;;16.41;79.34;102129.53;5092085;28;20118;-50
2021/07/16 06:00:38;;;;;;;14.23;3.67;;;;;;;16.43;79.19;102132.06;5093333;28;20052;-50
2021/07/16 06:03:05;;;;;;;17.25;4.10;;;;;;;16.35;78.20;102122.84;5092245;28;20032;-52
2021/07/16 06:05:33;;;;;;;14.70;3.25;;;;;;;16.35;77.44;102130.81;5093542;28;20379;-51
2021/07/16 06:08:01;;;;;;;11.85;3.30;;;;;;;16.37;77.33;102131.56;5093351;28;20039;-49
2021/07/16 06:10:28;;;;;;;13.95;4.30;;;;;;;16.38;78.07;102141.19;5093458;28;20494;-51
2021/07/16 06:12:56;;;;;;;19.83;4.18;;;;;;;16.38;78.21;102143.84;5092030;28;20105;-50
2021/07/16 06:15:23;;;;;;;16.17;3.58;;;;;;;16.50;78.67;102136.00;5092401;28;20696;-49
2021/07/16 06:17:50;;;;;;;18.20;3.72;;;;;;;16.66;78.50;102144.59;5093177;28;20297;-48
2021/07/16 06:20:17;;;;;;;11.93;3.45;;;;;;;16.70;77.98;102154.03;5093197;28;20048;-50
2021/07/16 06:22:44;;;;;;;14.88;3.45;;;;;;;16.76;76.94;102152.75;5091720;28;20134;-50
2021/07/16 06:25:12;;;;;;;18.40;3.25;;;;;;;16.78;77.74;102144.69;5091321;28;20063;-47
2021/07/16 06:27:39;;;;;;;15.65;3.63;;;;;;;16.83;77.51;102153.19;5091349;28;20121;-48
2021/07/16 06:30:07;;;;;;;13.95;3.42;;;;;;;16.84;77.45;102157.53;5092485;28;20044;-49
2021/07/16 06:32:36;;;;;;;14.15;3.67;;;;;;;16.83;77.02;102148.69;5075041;28;20040;-51
2021/07/16 06:35:05;;;;;;;12.07;3.15;;;;;;;16.85;77.31;102148.59;5092869;28;20406;-47
2021/07/16 06:37:31;;;;;;;11.13;3.20;;;;;;;16.88;76.39;102138.59;5091258;28;20056;-49
2021/07/16 06:40:01;;;;;;;12.88;3.15;;;;;;;16.84;76.83;102138.94;5092737;28;20039;-57
2021/07/16 06:42:28;;;;;;;14.05;3.10;;;;;;;16.85;76.39;102141.47;5091641;28;20068;-57
2021/07/16 06:44:55;;;;;;;14.25;3.50;;;;;;;16.92;77.03;102138.41;5073726;28;20051;-57
2021/07/16 06:47:22;;;;;;;15.52;3.45;;;;;;;16.99;76.28;102139.69;5092748;28;20056;-49
2021/07/16 06:49:49;;;;;;;11.88;3.35;;;;;;;17.07;77.54;102147.94;5092697;28;20048;-50
2021/07/16 06:52:16;;;;;;;16.27;3.95;;;;;;;17.03;76.87;102142.00;5092546;28;20040;-47
2021/07/16 06:54:43;;;;;;;16.33;3.80;;;;;;;17.02;76.12;102145.59;5092500;28;20071;-48
2021/07/16 06:57:09;;;;;;;18.58;3.35;;;;;;;17.08;76.56;102154.09;5092610;28;20036;-51
2021/07/16 06:59:36;;;;;;;15.23;3.33;;;;;;;17.10;76.37;102152.16;5091519;28;20048;-46
2021/07/16 07:02:04;;;;;;;13.95;3.17;;;;;;;16.98;74.79;102148.59;5091260;28;20406;-48
2021/07/16 07:04:31;;;;;;;16.52;3.67;;;;;;;16.89;74.30;102155.41;5092544;28;20101;-50
2021/07/16 07:06:58;;;;;;;17.90;3.53;;;;;;;16.96;75.25;102156.69;5091405;28;20101;-51
2021/07/16 07:09:26;;;;;;;16.48;3.75;;;;;;;17.02;76.07;102156.25;5090987;28;20056;-50
2021/07/16 07:11:52;;;;;;;29.65;3.72;;;;;;;16.98;75.06;102161.91;5091831;28;20040;-50
2021/07/16 07:14:19;;;;;;;14.65;3.63;;;;;;;16.99;75.06;102150.31;5090543;28;20402;-48
2021/07/16 07:16:46;;;;;;;15.43;3.17;;;;;;;17.04;75.34;102159.66;5092347;28;20052;-50
2021/07/16 07:19:13;;;;;;;14.63;3.45;;;;;;;17.07;75.08;102163.91;5092280;28;20475;-51
2021/07/16 07:21:39;;;;;;;15.52;3.40;;;;;;;17.16;75.86;102162.38;5092337;28;20501;-49
2021/07/16 07:24:06;;;;;;;15.00;3.72;;;;;;;17.30;75.13;102169.34;5091094;28;20042;-52
2021/07/16 07:26:35;;;;;;;13.23;3.10;;;;;;;17.22;75.46;102175.22;5091240;28;20056;-51
2021/07/16 07:29:03;;;;;;;15.93;3.90;;;;;;;17.30;75.17;102174.66;5092429;28;20040;-51
2021/07/16 07:31:29;;;;;;;21.83;4.07;;;;;;;17.28;73.78;102179.25;5091272;28;20514;-57
2021/07/16 07:33:56;;;;;;;14.40;3.40;;;;;;;17.27;74.91;102186.34;5092367;28;20040;-57
2021/07/16 07:36:27;;;;;;;13.85;4.20;;;;;;;17.25;75.12;102182.97;5090563;28;20067;-57
2021/07/16 07:38:54;;;;;;;16.58;3.75;;;;;;;17.18;74.85;102187.88;5090661;28;20055;-57
2021/07/16 07:41:21;;;;;;;14.55;3.72;;;;;;;17.29;75.06;102187.09;5092524;28;20048;-57
2021/07/16 07:43:47;;;;;;;19.25;4.15;;;;;;;17.39;75.01;102181.97;5092587;28;20051;-57
2021/07/16 07:46:15;;;;;;;18.00;3.63;;;;;;;17.25;74.69;102182.97;5091278;28;20386;-57
2021/07/16 07:48:42;;;;;;;13.18;3.65;;;;;;;17.19;74.20;102189.59;5092067;28;20184;-49
2021/07/16 07:51:08;;;;;;;16.05;3.22;;;;;;;17.24;74.50;102186.59;5091813;28;20052;-57
2021/07/16 07:53:35;;;;;;;15.57;3.40;;;;;;;17.36;73.39;102190.19;5090629;28;20045;-57
2021/07/16 07:56:02;;;;;;;17.83;3.67;;;;;;;17.29;74.05;102180.91;5090792;28;20055;-49
2021/07/16 07:58:29;;;;;;;23.77;5.10;;;;;;;17.30;73.98;102190.59;5090821;28;20052;-57
2021/07/16 08:00:56;;;;;;;19.48;3.60;;;;;;;17.39;74.79;102189.94;5092174;28;20119;-57
2021/07/16 08:03:24;;;;;;;23.45;4.32;;;;;;;17.37;74.57;102192.72;5091260;28;20048;-57
2021/07/16 08:05:51;;;;;;;16.35;3.47;;;;;;;17.47;73.65;102198.19;5090364;28;20047;-57
2021/07/16 08:08:18;;;;;;;18.70;3.60;;;;;;;17.50;72.96;102200.63;5090149;28;20123;-57
2021/07/16 08:10:45;;;;;;;14.02;3.47;;;;;;;17.43;73.37;102201.22;5074009;28;20040;-51
2021/07/16 08:13:12;;;;;;;15.63;3.63;;;;;;;17.35;73.07;102201.75;5090737;28;20131;-50
2021/07/16 08:15:39;;;;;;;15.68;3.35;;;;;;;17.59;72.89;102204.44;5090760;28;20131;-50
2021/07/16 08:18:06;;;;;;;14.27;3.40;;;;;;;17.68;73.16;102200.25;5094108;28;20040;-57
2021/07/16 08:20:33;;;;;;;14.15;4.43;;;;;;;17.78;74.33;102195.94;5093224;28;20079;-57
2021/07/16 08:23:00;;;;;;;15.10;3.50;;;;;;;17.83;72.62;102193.81;5094517;28;20441;-57
2021/07/16 08:25:27;;;;;;;19.70;4.15;;;;;;;18.00;72.15;102191.72;5094079;28;20044;-51
2021/07/16 08:27:54;;;;;;;15.85;3.80;;;;;;;18.28;72.55;102197.59;5095230;28;20525;-50
2021/07/16 08:30:20;;;;;;;15.60;3.70;;;;;;;18.45;71.53;102204.25;5094938;28;20101;-50
2021/07/16 08:32:47;;;;;;;17.25;3.95;;;;;;;18.64;70.54;102204.53;5094577;28;20089;-57
2021/07/16 08:35:14;;;;;;;14.27;3.83;;;;;;;18.70;68.96;102206.72;5075611;28;20090;-57
2021/07/16 08:37:41;;;;;;;21.73;3.78;;;;;;;18.77;68.15;102203.59;5093366;28;20142;-57
2021/07/16 08:40:08;;;;;;;14.35;3.60;;;;;;;18.70;67.40;102201.38;5094895;28;20056;-57
2021/07/16 08:42:35;;;;;;;13.27;3.22;;;;;;;18.73;67.87;102213.63;5095097;28;20048;-57
2021/07/16 08:45:05;;;;;;;15.95;3.47;;;;;;;18.82;67.31;102201.41;5094755;28;20040;-49
2021/07/16 08:47:33;;;;;;;15.85;3.47;;;;;;;18.98;68.90;102199.25;5095243;28;20078;-51
2021/07/16 08:50:02;;;;;;;10.95;2.95;;;;;;;19.27;67.76;102205.88;5094490;28;20044;-57
2021/07/16 08:52:29;;;;;;;14.07;3.38;;;;;;;19.73;67.67;102208.28;5094858;28;20058;-58
2021/07/16 08:54:59;;;;;;;10.07;3.00;;;;;;;20.09;66.97;102202.69;5094568;28;20576;-57
2021/07/16 08:57:27;;;;;;;12.32;2.72;;;;;;;20.19;62.30;102202.75;5092513;28;20460;-58
2021/07/16 08:59:54;;;;;;;11.00;2.90;;;;;;;20.62;63.74;102198.25;5092416;28;20090;-58
2021/07/16 09:02:29;;;;;;;12.02;3.08;;;;;;;20.72;63.61;102205.34;5094495;28;20499;-54
2021/07/16 09:05:03;;;;;;;12.68;3.40;;;;;;;20.64;63.00;102206.97;5093518;28;20063;-58
2021/07/16 09:07:41;;;;;;;13.73;3.17;;;;;;;20.49;61.75;102198.44;5092893;28;20036;-58
2021/07/16 09:10:09;;;;;;;14.00;3.28;;;;;;;20.37;61.98;102200.34;5093985;28;20047;-58
2021/07/16 09:12:36;;;;;;;15.70;3.03;;;;;;;20.16;62.51;102213.72;5094694;28;20075;-58
2021/07/16 09:15:11;;;;;;;13.55;3.30;;;;;;;20.22;62.82;102207.84;5094557;28;20040;-52
2021/07/16 09:17:42;;;;;;;13.68;3.53;;;;;;;20.27;63.36;102210.97;5094473;28;20048;-49
2021/07/16 09:20:22;;;;;;;13.30;3.45;;;;;;;20.21;62.87;102207.00;5093120;28;20048;-51
2021/07/16 09:23:16;;;;;;;12.27;3.10;;;;;;;20.25;62.86;102218.28;5094193;28;20060;-51
2021/07/16 09:25:44;;;;;;;11.82;3.10;;;;;;;20.19;62.55;102211.63;5075574;28;20047;-51
2021/07/16 09:28:24;;;;;;;15.82;3.78;;;;;;;20.20;62.30;102221.31;5093093;28;20036;-48
2021/07/16 09:30:53;;;;;;;12.35;3.17;;;;;;;20.03;62.36;102213.91;5093923;28;20056;-49
2021/07/16 09:33:20;;;;;;;11.77;2.80;;;;;;;19.96;62.63;102218.91;5093765;28;20139;-52
2021/07/16 09:35:49;;;;;;;11.77;3.33;;;;;;;20.09;63.21;102230.22;5093600;28;20058;-51
2021/07/16 09:38:18;;;;;;;15.02;3.58;;;;;;;19.98;62.59;102226.78;5092459;28;20056;-51
2021/07/16 09:40:52;;;;;;;18.42;4.05;;;;;;;19.90;63.91;102240.78;5093880;28;20048;-49
2021/07/16 09:43:23;;;;;;;16.23;3.97;;;;;;;19.90;63.13;102249.63;5092396;28;20048;-52
2021/07/16 09:45:50;;;;;;;14.95;3.78;;;;;;;19.85;64.20;102249.19;5093538;28;20131;-50
2021/07/16 09:48:34;;;;;;;18.98;3.95;;;;;;;19.74;64.78;102257.16;5093414;28;20078;-51
2021/07/16 09:51:07;;;;;;;16.60;3.88;;;;;;;19.65;64.15;102261.44;5092236;28;20044;-50
2021/07/16 09:53:39;;;;;;;;;;;;;;;19.38;66.62;102259.19;5093952;28;20056;-51
2021/07/16 09:56:10;;;;;;;15.80;3.40;;;;;;;19.31;68.79;102253.50;5093574;28;19981;-45
2021/07/16 09:58:37;;;;;;;12.68;3.55;;;;;;;19.21;69.41;102244.53;5092378;28;20051;-47
2021/07/16 10:01:04;;;;;;;14.77;4.05;;;;;;;19.43;70.55;102239.19;5089643;28;20643;-50
2021/07/16 10:03:32;;;;;;;14.25;4.00;;;;;;;19.35;71.70;102241.63;5090715;28;20449;-50
2021/07/16 10:06:01;;;;;;;17.80;4.22;;;;;;;19.26;74.29;102245.03;5092533;28;20498;-49
2021/07/16 10:08:32;;;;;;;16.02;3.83;;;;;;;19.19;72.21;102247.31;5092109;28;20048;-51
2021/07/16 10:11:05;;;;;;;15.20;3.75;;;;;;;19.22;70.32;102243.56;5075457;28;20109;-47
2021/07/16 10:13:36;;;;;;;15.48;3.75;;;;;;;19.27;70.92;102241.38;5093381;28;20047;-50
2021/07/16 10:16:04;;;;;;;14.70;3.80;;;;;;;19.36;72.48;102251.31;5093472;28;20052;-50
2021/07/16 10:18:31;;;;;;;19.05;3.90;;;;;;;19.20;74.02;102265.03;5091944;28;20044;-50
2021/07/16 10:20:58;;;;;;;17.23;4.05;;;;;;;19.31;74.25;102260.66;5091920;28;20048;-47
2021/07/16 10:23:26;;;;;;;14.98;4.25;;;;;;;19.49;73.79;102264.50;5092031;28;20111;-47
2021/07/16 10:25:53;;;;;;;18.48;4.65;;;;;;;19.31;73.86;102263.34;5092292;28;20044;-48
2021/07/16 10:28:42;;;;;;;15.32;4.10;;;;;;;19.21;72.52;102263.19;5075074;28;20425;-49
2021/07/16 10:31:27;;;;;;;17.10;4.78;;;;;;;19.32;72.51;102273.00;5093268;28;20051;-49
2021/07/16 10:34:17;;;;;;;16.48;4.15;;;;;;;19.33;73.70;102269.38;5092943;28;20068;-48
2021/07/16 10:36:46;;;;;;;15.02;4.10;;;;;;;19.51;72.64;102283.91;5089590;28;20044;-49
2021/07/16 10:39:19;;;;;;;16.48;3.78;;;;;;;19.40;71.88;102279.44;5092771;28;20051;-48
2021/07/16 10:41:46;;;;;;;14.80;3.75;;;;;;;19.57;71.89;102277.22;5092765;28;20044;-49
2021/07/16 10:44:15;;;;;;;18.67;4.60;;;;;;;19.39;71.57;102280.41;5074823;28;20071;-51
2021/07/16 10:46:44;;;;;;;14.52;3.53;;;;;;;19.42;69.40;102274.81;5092869;28;20048;-51
2021/07/16 10:49:12;;;;;;;13.85;3.83;;;;;;;19.49;72.49;102285.00;5092723;28;20135;-48
2021/07/16 10:51:40;;;;;;;13.90;3.83;;;;;;;19.53;71.79;102281.13;5092801;28;20048;-47
2021/07/16 10:54:10;;;;;;;19.70;5.13;;;;;;;19.56;72.86;102273.69;5092516;28;20040;-50
2021/07/16 10:56:41;;;;;;;15.95;3.92;;;;;;;19.34;71.91;102274.59;5092801;28;20047;-48
2021/07/16 10:59:08;;;;;;;18.90;4.65;;;;;;;19.28;71.42;102272.44;5092569;28;20059;-51
2021/07/16 11:01:37;;;;;;;17.55;5.05;;;;;;;19.38;71.62;102275.19;5092589;28;20051;-49
2021/07/16 11:04:07;;;;;;;19.50;4.43;;;;;;;19.48;72.39;102267.31;5091443;28;20063;-52
2021/07/16 11:06:52;;;;;;;13.75;4.32;;;;;;;19.36;71.42;102277.13;5092435;28;20113;-49
2021/07/16 11:09:42;;;;;;;13.45;3.85;;;;;;;19.27;71.11;102275.22;5092473;28;20046;-50
2021/07/16 11:12:24;;;;;;;16.08;3.72;;;;;;;19.13;70.83;102281.63;5091292;28;20048;-48
2021/07/16 11:14:52;;;;;;;16.77;4.00;;;;;;;19.06;70.68;102282.13;5092448;28;20040;-51
2021/07/16 11:17:36;;;;;;;15.70;3.90;;;;;;;18.98;72.60;102273.88;5091071;28;20707;-50
2021/07/16 11:20:06;;;;;;;18.90;4.63;;;;;;;19.15;72.43;102277.88;5092348;28;20494;-50
2021/07/16 11:22:33;;;;;;;18.60;4.30;;;;;;;19.05;73.40;102268.94;5092538;28;20044;-50
2021/07/16 11:25:00;;;;;;;18.92;4.55;;;;;;;19.00;71.94;102287.94;5092267;28;20131;-50